createdAt,value
2018-06-18T00:00:06.236Z,17.60
2018-06-18T00:02:35.169Z,17.60
2018-06-18T00:05:03.372Z,17.50
2018-06-18T00:07:34.508Z,17.50
2018-06-18T00:10:07.192Z,17.50
2018-06-18T00:12:36.003Z,17.50
2018-06-18T00:15:04.235Z,17.50
2018-06-18T00:17:35.341Z,17.50
2018-06-18T00:20:03.875Z,17.40
2018-06-18T00:22:32.137Z,17.40
2018-06-18T00:25:04.472Z,17.40
2018-06-18T00:27:32.653Z,17.40
2018-06-18T00:30:01.330Z,17.30
2018-06-18T00:32:29.559Z,17.30
2018-06-18T00:34:57.759Z,17.30
2018-06-18T00:37:26.330Z,17.20
2018-06-18T00:40:02.015Z,17.20
2018-06-18T00:42:30.272Z,17.20
2018-06-18T00:44:58.505Z,17.20
2018-06-18T00:47:27.561Z,17.10
2018-06-18T00:49:55.823Z,17.10
2018-06-18T00:52:24.055Z,17.10
2018-06-18T00:54:52.246Z,17.00
2018-06-18T00:57:20.488Z,17.00
2018-06-18T00:59:48.659Z,17.00
2018-06-18T01:02:16.832Z,17.00
2018-06-18T01:07:19.820Z,16.90
2018-06-18T01:09:51.768Z,16.90
2018-06-18T01:12:19.926Z,16.80
2018-06-18T01:17:16.275Z,16.70
2018-06-18T01:19:44.450Z,16.80
2018-06-18T01:25:04.939Z,16.80
2018-06-18T01:27:33.150Z,16.80
2018-06-18T01:30:01.400Z,16.80
2018-06-18T01:32:29.617Z,16.80
2018-06-18T01:34:57.808Z,16.80
2018-06-18T01:37:26.035Z,16.80
2018-06-18T01:39:54.568Z,16.70
2018-06-18T01:42:23.558Z,16.70
2018-06-18T01:44:51.759Z,16.80
2018-06-18T01:47:21.187Z,16.80
2018-06-18T01:49:49.818Z,16.80
2018-06-18T01:52:17.995Z,16.80
2018-06-18T01:54:46.660Z,16.80
2018-06-18T01:57:19.217Z,16.80
2018-06-18T01:59:47.455Z,16.80
2018-06-18T02:02:22.300Z,16.80
2018-06-18T02:04:50.491Z,16.80
2018-06-18T02:07:18.752Z,16.70
2018-06-18T02:09:46.939Z,16.70
2018-06-18T02:12:15.163Z,16.70
2018-06-18T02:14:43.399Z,16.60
2018-06-18T02:17:11.676Z,16.50
2018-06-18T02:19:39.925Z,16.40
2018-06-18T02:22:08.116Z,16.40
2018-06-18T02:24:36.323Z,16.30
2018-06-18T02:27:13.450Z,16.30
2018-06-18T02:29:47.899Z,16.30
2018-06-18T02:32:21.660Z,16.30
2018-06-18T02:34:55.235Z,16.20
2018-06-18T02:37:28.915Z,16.20
2018-06-18T02:40:05.684Z,16.20
2018-06-18T02:42:33.909Z,16.20
2018-06-18T02:47:30.133Z,16.20
2018-06-18T02:49:58.292Z,16.10
2018-06-18T02:52:27.164Z,16.00
2018-06-18T02:54:55.599Z,16.00
2018-06-18T02:57:23.797Z,15.90
2018-06-18T02:59:52.072Z,15.90
2018-06-18T03:02:20.268Z,16.00
2018-06-18T03:04:48.524Z,15.90
2018-06-18T03:07:23.243Z,15.90
2018-06-18T03:09:51.631Z,15.90
2018-06-18T03:12:21.217Z,15.80
2018-06-18T03:14:49.446Z,15.80
2018-06-18T03:17:17.661Z,15.80
2018-06-18T03:19:53.041Z,15.70
2018-06-18T03:22:26.943Z,15.70
2018-06-18T03:25:00.732Z,15.70
2018-06-18T03:27:37.634Z,15.70
2018-06-18T03:32:35.817Z,15.70
2018-06-18T03:35:04.285Z,15.60
2018-06-18T03:37:32.494Z,15.60
2018-06-18T03:40:01.492Z,15.60
2018-06-18T03:42:29.733Z,15.60
2018-06-18T03:45:30.732Z,15.60
2018-06-18T03:48:04.421Z,15.70
2018-06-18T03:50:32.626Z,15.70
2018-06-18T03:53:00.827Z,15.80
2018-06-18T03:55:48.128Z,15.90
2018-06-18T03:58:16.434Z,16.00
2018-06-18T04:01:33.096Z,16.10
2018-06-18T04:04:08.620Z,16.10
2018-06-18T04:06:42.304Z,16.10
2018-06-18T04:09:15.873Z,16.10
2018-06-18T04:11:52.568Z,16.20
2018-06-18T04:14:20.822Z,16.20
2018-06-18T04:16:49.053Z,16.30
2018-06-18T04:19:17.730Z,16.70
2018-06-18T04:21:45.991Z,17.40
2018-06-18T04:24:14.207Z,17.60
2018-06-18T04:26:42.655Z,17.40
2018-06-18T04:29:10.990Z,17.20
2018-06-18T04:31:39.488Z,17.20
2018-06-18T04:34:25.229Z,17.10
2018-06-18T04:36:53.447Z,17.10
2018-06-18T04:39:21.701Z,17.10
2018-06-18T04:41:55.382Z,17.10
2018-06-18T04:44:28.902Z,17.20
2018-06-18T04:47:02.443Z,17.30
2018-06-18T04:49:35.922Z,17.30
2018-06-18T04:52:04.162Z,17.40
2018-06-18T04:54:32.773Z,17.30
2018-06-18T04:57:01.703Z,17.10
2018-06-18T04:59:30.418Z,16.90
2018-06-18T05:02:01.228Z,16.90
2018-06-18T05:04:29.395Z,17.00
2018-06-18T05:06:58.913Z,16.90
2018-06-18T05:09:39.652Z,16.80
2018-06-18T05:12:08.163Z,16.90
2018-06-18T05:14:36.442Z,17.00
2018-06-18T05:17:05.328Z,17.10
2018-06-18T05:19:33.615Z,17.20
2018-06-18T05:22:03.372Z,17.20
2018-06-18T05:24:31.676Z,17.10
2018-06-18T05:27:00.318Z,17.10
2018-06-18T05:29:28.519Z,17.10
2018-06-18T05:31:56.796Z,17.20
2018-06-18T05:34:28.467Z,17.30
2018-06-18T05:37:00.839Z,17.40
2018-06-18T05:39:29.106Z,17.50
2018-06-18T05:41:57.287Z,17.40
2018-06-18T05:44:25.480Z,17.20
2018-06-18T05:46:54.174Z,17.40
2018-06-18T05:49:22.428Z,17.30
2018-06-18T05:51:50.624Z,17.30
2018-06-18T05:54:18.879Z,17.30
2018-06-18T05:56:47.047Z,17.40
2018-06-18T05:59:15.241Z,17.50
2018-06-18T06:01:53.929Z,17.60
2018-06-18T06:04:22.120Z,17.40
2018-06-18T06:06:51.243Z,17.20
2018-06-18T06:09:19.467Z,17.30
2018-06-18T06:11:47.784Z,17.30
2018-06-18T06:14:16.315Z,17.30
2018-06-18T06:16:48.715Z,17.40
2018-06-18T06:19:16.910Z,17.50
2018-06-18T06:21:45.138Z,17.70
2018-06-18T06:24:13.382Z,17.80
2018-06-18T06:26:41.537Z,18.00
2018-06-18T06:29:16.444Z,18.10
2018-06-18T06:31:44.744Z,18.40
2018-06-18T06:34:13.834Z,18.60
2018-06-18T06:36:42.472Z,18.80
2018-06-18T06:39:11.340Z,19.20
2018-06-18T06:41:41.536Z,19.90
2018-06-18T06:44:13.270Z,20.40
2018-06-18T06:46:45.631Z,20.70
2018-06-18T06:49:13.836Z,20.80
2018-06-18T06:51:42.025Z,20.30
2018-06-18T06:54:10.421Z,20.40
2018-06-18T06:56:39.028Z,20.40
2018-06-18T06:59:07.381Z,20.80
2018-06-18T07:01:38.876Z,20.80
2018-06-18T07:04:07.999Z,20.80
2018-06-18T07:06:36.266Z,21.30
2018-06-18T07:09:07.832Z,22.00
2018-06-18T07:11:36.619Z,22.20
2018-06-18T07:16:33.125Z,22.70
2018-06-18T07:19:01.446Z,22.80
2018-06-18T07:23:57.692Z,21.40
2018-06-18T07:26:25.988Z,21.00
2018-06-18T07:28:54.257Z,20.70
2018-06-18T07:31:29.743Z,20.90
2018-06-18T07:33:58.884Z,21.20
2018-06-18T07:36:27.095Z,21.40
2018-06-18T07:38:55.299Z,21.20
2018-06-18T07:41:24.211Z,21.00
2018-06-18T07:43:52.549Z,21.20
2018-06-18T07:46:20.740Z,21.40
2018-06-18T07:48:49.276Z,21.70
2018-06-18T07:51:17.490Z,21.60
2018-06-18T07:53:45.719Z,21.60
2018-06-18T07:56:13.947Z,21.60
2018-06-18T07:58:42.164Z,21.60
2018-06-18T08:01:14.619Z,21.60
2018-06-18T08:03:42.906Z,21.80
2018-06-18T08:06:11.141Z,21.70
2018-06-18T08:08:39.388Z,22.10
2018-06-18T08:11:07.896Z,22.00
2018-06-18T08:13:36.121Z,22.30
2018-06-18T08:16:08.583Z,22.50
2018-06-18T08:18:37.003Z,22.40
2018-06-18T08:21:05.268Z,21.90
2018-06-18T08:26:02.382Z,21.60
2018-06-18T08:28:30.767Z,22.00
2018-06-18T08:30:58.938Z,22.40
2018-06-18T08:33:27.148Z,22.80
2018-06-18T08:35:55.377Z,23.10
2018-06-18T08:38:23.778Z,23.30
2018-06-18T08:40:51.998Z,23.10
2018-06-18T08:43:20.256Z,22.60
2018-06-18T08:45:48.580Z,22.40
2018-06-18T08:48:21.999Z,22.70
2018-06-18T08:50:55.676Z,22.30
2018-06-18T08:53:29.148Z,22.10
2018-06-18T08:56:02.700Z,22.30
2018-06-18T08:58:36.839Z,22.60
2018-06-18T09:01:12.542Z,22.20
2018-06-18T09:03:46.175Z,22.40
2018-06-18T09:06:14.385Z,23.10
2018-06-18T09:08:47.929Z,23.70
2018-06-18T09:11:16.402Z,23.40
2018-06-18T09:13:45.192Z,23.00
2018-06-18T09:16:13.417Z,23.10
2018-06-18T09:21:10.204Z,23.60
2018-06-18T09:23:38.492Z,23.80
2018-06-18T09:26:06.669Z,23.60
2018-06-18T09:28:34.872Z,23.60
2018-06-18T09:31:03.119Z,23.30
2018-06-18T09:33:31.352Z,23.20
2018-06-18T09:35:59.588Z,23.00
2018-06-18T09:38:27.803Z,22.60
2018-06-18T09:40:56.059Z,22.40
2018-06-18T09:43:24.357Z,22.50
2018-06-18T09:48:25.768Z,22.80
2018-06-18T09:50:59.632Z,22.60
2018-06-18T09:53:33.328Z,22.40
2018-06-18T09:56:06.890Z,22.50
2018-06-18T09:58:40.580Z,22.90
2018-06-18T10:01:16.894Z,22.90
2018-06-18T10:03:45.225Z,23.00
2018-06-18T10:06:14.257Z,23.30
2018-06-18T10:08:42.926Z,23.50
2018-06-18T10:11:13.889Z,23.40
2018-06-18T10:13:43.084Z,23.10
2018-06-18T10:16:15.958Z,22.90
2018-06-18T10:18:44.882Z,22.90
2018-06-18T10:21:13.200Z,22.90
2018-06-18T10:23:42.900Z,23.10
2018-06-18T10:26:11.500Z,23.50
2018-06-18T10:28:39.895Z,23.50
2018-06-18T10:31:08.199Z,23.70
2018-06-18T10:33:41.792Z,24.20
2018-06-18T10:36:15.661Z,24.60
2018-06-18T10:38:49.309Z,24.80
2018-06-18T10:41:22.995Z,25.00
2018-06-18T10:43:51.188Z,24.70
2018-06-18T10:46:19.431Z,24.60
2018-06-18T10:48:47.761Z,23.80
2018-06-18T10:51:16.061Z,23.20
2018-06-18T10:53:44.270Z,23.00
2018-06-18T10:56:12.507Z,23.00
2018-06-18T10:58:41.240Z,22.80
2018-06-18T11:01:11.566Z,22.40
2018-06-18T11:03:47.079Z,22.10
2018-06-18T11:06:20.585Z,22.00
2018-06-18T11:08:49.606Z,22.10
2018-06-18T11:11:17.833Z,22.20
2018-06-18T11:13:46.111Z,22.20
2018-06-18T11:16:14.462Z,22.40
2018-06-18T11:18:48.231Z,22.70
2018-06-18T11:21:22.054Z,22.80
2018-06-18T11:23:56.316Z,22.80
2018-06-18T11:26:30.017Z,22.60
2018-06-18T11:28:58.176Z,22.50
2018-06-18T11:46:26.943Z,22.60
2018-06-18T11:48:55.210Z,22.60
2018-06-18T11:51:35.239Z,23.00
2018-06-18T11:54:03.457Z,22.90
2018-06-18T11:56:32.324Z,22.80
2018-06-18T11:59:05.953Z,23.00
2018-06-18T12:01:40.253Z,23.20
2018-06-18T12:04:13.892Z,23.70
2018-06-18T12:06:51.744Z,24.00
2018-06-18T12:09:27.608Z,24.20
2018-06-18T12:11:56.388Z,24.40
2018-06-18T12:16:53.589Z,24.80
2018-06-18T12:19:21.876Z,25.10
2018-06-18T12:21:57.517Z,25.20
2018-06-18T12:25:26.380Z,24.40
2018-06-18T12:27:54.640Z,23.80
2018-06-18T12:30:22.838Z,23.80
2018-06-18T12:32:52.024Z,23.80
2018-06-18T12:35:20.251Z,23.70
2018-06-18T12:37:53.104Z,23.80
2018-06-18T12:40:21.950Z,23.80
2018-06-18T12:45:25.088Z,24.20
2018-06-18T12:47:58.604Z,24.10
2018-06-18T12:50:36.080Z,24.50
2018-06-18T12:55:44.121Z,24.70
2018-06-18T12:58:12.342Z,24.60
2018-06-18T13:00:40.670Z,24.80
2018-06-18T13:03:11.668Z,24.80
2018-06-18T13:05:43.448Z,24.70
2018-06-18T13:08:12.161Z,24.70
2018-06-18T13:10:40.380Z,24.90
2018-06-18T13:13:08.793Z,25.10
2018-06-18T13:15:37.072Z,25.30
2018-06-18T13:18:05.344Z,25.50
2018-06-18T13:20:36.450Z,25.60
2018-06-18T13:23:09.112Z,25.40
2018-06-18T13:25:38.071Z,25.30
2018-06-18T13:28:11.707Z,24.80
2018-06-18T13:30:39.916Z,24.40
2018-06-18T13:33:08.575Z,24.30
2018-06-18T13:35:36.776Z,24.10
2018-06-18T13:38:10.443Z,24.10
2018-06-18T13:40:45.848Z,24.10
2018-06-18T13:43:19.936Z,24.20
2018-06-18T13:48:27.775Z,24.40
2018-06-18T13:50:55.943Z,24.10
2018-06-18T13:53:24.962Z,24.20
2018-06-18T13:55:54.140Z,24.30
2018-06-18T13:58:22.919Z,24.40
2018-06-18T14:00:51.103Z,24.50
2018-06-18T14:03:19.356Z,24.80
2018-06-18T14:05:48.471Z,25.00
2018-06-18T14:08:17.238Z,24.90
2018-06-18T14:10:46.016Z,24.60
2018-06-18T14:13:15.125Z,24.40
2018-06-18T14:15:44.187Z,24.30
2018-06-18T14:18:13.071Z,24.20
2018-06-18T14:20:41.316Z,24.20
2018-06-18T14:25:38.211Z,24.60
2018-06-18T14:28:06.404Z,24.60
2018-06-18T14:30:41.256Z,24.50
2018-06-18T14:33:14.843Z,24.80
2018-06-18T14:35:48.884Z,25.10
2018-06-18T14:38:29.915Z,25.60
2018-06-18T14:40:58.850Z,26.00
2018-06-18T14:43:27.866Z,26.00
2018-06-18T14:45:57.109Z,25.40
2018-06-18T14:50:53.565Z,25.00
2018-06-18T14:53:25.680Z,24.70
2018-06-18T14:56:00.800Z,24.60
2018-06-18T14:58:29.063Z,24.60
2018-06-18T15:00:58.137Z,24.80
2018-06-18T15:03:26.341Z,25.00
2018-06-18T15:05:56.132Z,24.90
2018-06-18T15:08:24.973Z,24.80
2018-06-18T15:10:54.215Z,24.70
2018-06-18T15:13:23.397Z,24.80
2018-06-18T15:15:57.032Z,24.80
2018-06-18T15:18:25.276Z,25.00
2018-06-18T15:20:56.685Z,25.40
2018-06-18T15:23:26.681Z,25.40
2018-06-18T15:25:55.648Z,25.40
2018-06-18T15:28:23.855Z,25.20
2018-06-18T15:30:52.987Z,25.20
2018-06-18T15:33:21.934Z,25.30
2018-06-18T15:35:50.943Z,25.60
2018-06-18T15:38:19.405Z,25.30
2018-06-18T15:40:47.523Z,25.00
2018-06-18T15:45:45.361Z,24.50
2018-06-18T15:48:13.563Z,24.60
2018-06-18T15:50:41.760Z,24.50
2018-06-18T15:53:13.901Z,24.40
2018-06-18T15:55:42.578Z,24.30
2018-06-18T15:58:10.847Z,24.60
2018-06-18T16:00:39.075Z,24.80
2018-06-18T16:03:07.644Z,24.60
2018-06-18T16:05:35.920Z,24.40
2018-06-18T16:08:04.221Z,24.60
2018-06-18T16:10:32.732Z,24.70
2018-06-18T16:13:00.875Z,24.40
2018-06-18T16:15:30.563Z,24.20
2018-06-18T16:17:58.843Z,25.10
2018-06-18T16:20:27.056Z,25.90
2018-06-18T16:22:56.268Z,25.90
2018-06-18T16:25:25.208Z,25.30
2018-06-18T16:27:53.748Z,24.70
2018-06-18T16:30:22.020Z,24.20
2018-06-18T16:32:50.256Z,24.20
2018-06-18T16:37:47.139Z,24.20
2018-06-18T16:40:15.396Z,25.00
2018-06-18T16:45:12.612Z,27.60
2018-06-18T16:47:40.820Z,28.20
2018-06-18T16:50:09.792Z,28.10
2018-06-18T16:52:38.008Z,28.00
2018-06-18T16:55:06.507Z,27.70
2018-06-18T16:57:34.760Z,28.60
2018-06-18T17:00:02.959Z,28.20
2018-06-18T17:02:31.192Z,26.90
2018-06-18T17:04:59.610Z,26.00
2018-06-18T17:07:28.703Z,25.40
2018-06-18T17:09:57.333Z,24.90
2018-06-18T17:12:25.528Z,24.50
2018-06-18T17:14:53.927Z,24.20
2018-06-18T17:17:22.513Z,24.10
2018-06-18T17:19:50.734Z,24.20
2018-06-18T17:22:18.942Z,24.50
2018-06-18T17:24:50.723Z,24.40
2018-06-18T17:27:18.951Z,24.20
2018-06-18T17:29:47.190Z,24.00
2018-06-18T17:32:15.380Z,23.70
2018-06-18T17:34:43.803Z,23.50
2018-06-18T17:37:12.016Z,23.20
2018-06-18T17:39:41.048Z,23.10
2018-06-18T17:42:13.036Z,22.90
2018-06-18T17:44:41.866Z,22.80
2018-06-18T17:47:10.053Z,22.70
2018-06-18T17:49:39.259Z,22.70
2018-06-18T17:54:37.028Z,23.60
2018-06-18T17:57:05.661Z,24.40
2018-06-18T17:59:34.964Z,25.10
2018-06-18T18:02:11.048Z,25.60
2018-06-18T18:04:39.485Z,25.00
2018-06-18T18:07:08.191Z,24.60
2018-06-18T18:09:36.635Z,24.90
2018-06-18T18:12:09.414Z,25.40
2018-06-18T18:14:38.300Z,26.20
2018-06-18T18:17:06.572Z,26.50
2018-06-18T18:19:36.548Z,26.30
2018-06-18T18:22:05.791Z,26.10
2018-06-18T18:24:34.168Z,25.60
2018-06-18T18:27:06.747Z,24.50
2018-06-18T18:29:35.221Z,24.20
2018-06-18T18:32:03.711Z,24.60
2018-06-18T18:34:39.122Z,24.70
2018-06-18T18:42:08.738Z,24.70
2018-06-18T18:44:36.992Z,24.70
2018-06-18T18:47:07.604Z,24.90
2018-06-18T18:52:04.052Z,25.10
2018-06-18T18:54:42.364Z,25.00
2018-06-18T18:57:25.432Z,24.60
2018-06-18T19:02:21.788Z,23.60
2018-06-18T19:04:58.092Z,23.20
2018-06-18T19:07:30.275Z,22.70
2018-06-18T19:10:14.403Z,22.30
2018-06-18T19:12:42.704Z,21.80
2018-06-18T19:15:11.579Z,21.40
2018-06-18T19:17:42.456Z,21.20
2018-06-18T19:20:21.639Z,21.20
2018-06-18T19:22:51.296Z,20.90
2018-06-18T19:25:21.603Z,20.80
2018-06-18T19:27:50.860Z,20.60
2018-06-18T19:30:19.141Z,20.50
2018-06-18T19:32:47.736Z,20.40
2018-06-18T19:35:18.885Z,20.30
2018-06-18T19:37:47.123Z,20.20
2018-06-18T19:42:47.801Z,20.10
2018-06-18T19:45:22.356Z,20.10
2018-06-18T19:47:56.365Z,20.00
2018-06-18T19:50:25.176Z,19.90
2018-06-18T19:52:55.163Z,19.90
2018-06-18T19:55:26.040Z,19.80
2018-06-18T20:00:29.452Z,19.60
2018-06-18T20:02:57.886Z,19.50
2018-06-18T20:05:26.240Z,19.50
2018-06-18T20:07:59.653Z,19.40
2018-06-18T20:10:30.248Z,19.40
2018-06-18T20:12:58.647Z,19.30
2018-06-18T20:15:27.092Z,19.30
2018-06-18T20:17:55.302Z,19.30
2018-06-18T20:20:23.543Z,19.20
2018-06-18T20:22:51.868Z,19.10
2018-06-18T20:25:27.909Z,19.10
2018-06-18T20:27:59.425Z,18.90
2018-06-18T20:30:27.621Z,18.90
2018-06-18T20:32:55.844Z,18.90
2018-06-18T20:35:29.589Z,18.90
2018-06-18T20:37:57.828Z,18.80
2018-06-18T20:40:26.525Z,18.80
2018-06-18T20:42:55.496Z,18.70
2018-06-18T20:45:23.808Z,18.70
2018-06-18T20:47:52.025Z,18.60
2018-06-18T20:50:20.366Z,18.60
2018-06-18T20:52:48.565Z,18.50
2018-06-18T20:55:16.867Z,18.50
2018-06-18T20:57:45.041Z,18.40
2018-06-18T21:02:41.346Z,18.40
2018-06-18T21:07:38.848Z,18.20
2018-06-18T21:10:08.952Z,18.10
2018-06-18T21:12:39.562Z,18.10
2018-06-18T21:15:09.836Z,18.10
2018-06-18T21:17:38.033Z,18.00
2018-06-18T21:20:06.264Z,18.00
2018-06-18T21:22:35.225Z,17.90
2018-06-18T21:25:03.565Z,17.90
2018-06-18T21:27:31.847Z,17.90
2018-06-18T21:30:00.199Z,17.80
2018-06-18T21:32:28.617Z,17.80
2018-06-18T21:34:56.835Z,17.70
2018-06-18T21:37:26.017Z,17.60
2018-06-18T21:45:01.295Z,17.40
2018-06-18T21:47:29.734Z,17.40
2018-06-18T21:49:58.203Z,17.50
2018-06-18T21:52:26.533Z,17.40
2018-06-18T21:54:54.753Z,17.40
2018-06-18T21:57:23.024Z,17.40
2018-06-18T21:59:51.210Z,17.30
2018-06-18T22:02:20.512Z,17.20
2018-06-18T22:04:48.700Z,17.20
2018-06-18T22:07:17.229Z,17.20
2018-06-18T22:09:45.829Z,17.10
2018-06-18T22:12:14.088Z,17.00
2018-06-18T22:14:42.265Z,16.90
2018-06-18T22:17:10.481Z,16.90
2018-06-18T22:19:39.236Z,16.90
2018-06-18T22:22:07.501Z,16.90
2018-06-18T22:24:35.714Z,16.80
2018-06-18T22:27:03.927Z,16.80
2018-06-18T22:32:00.122Z,16.60
2018-06-18T22:34:28.370Z,16.60
2018-06-18T22:36:56.592Z,16.60
2018-06-18T22:39:24.800Z,16.60
2018-06-18T22:41:53.745Z,16.60
2018-06-18T22:44:22.839Z,16.60
2018-06-18T22:46:51.059Z,16.50
2018-06-18T22:49:19.564Z,16.60
2018-06-18T22:51:49.323Z,16.60
2018-06-18T22:54:17.527Z,16.70
2018-06-18T22:56:46.295Z,16.60
2018-06-18T22:59:14.539Z,16.60
2018-06-18T23:01:42.716Z,16.60
2018-06-18T23:04:10.895Z,16.60
2018-06-18T23:06:39.116Z,16.50
2018-06-18T23:09:09.513Z,16.50
2018-06-18T23:11:37.720Z,16.40
2018-06-18T23:14:08.576Z,16.40
2018-06-18T23:16:38.180Z,16.30
2018-06-18T23:19:09.856Z,16.30
2018-06-18T23:21:38.066Z,16.30
2018-06-18T23:24:06.236Z,16.30
2018-06-18T23:26:34.959Z,16.30
2018-06-18T23:29:08.160Z,16.30
2018-06-18T23:34:11.695Z,16.20
2018-06-18T23:36:40.304Z,16.20
2018-06-18T23:39:09.990Z,16.10
2018-06-18T23:41:41.194Z,16.00
2018-06-18T23:44:10.373Z,16.00
2018-06-18T23:46:42.360Z,16.00
2018-06-18T23:49:13.811Z,15.90
2018-06-18T23:51:43.027Z,15.90
2018-06-18T23:54:11.221Z,15.90
2018-06-18T23:56:39.413Z,15.80
2018-06-18T23:59:08.304Z,15.80
